sensor_id;sensor_type;location;lat;lon;timestamp;temperature;humidity
11764;DHT22;5939;56.522;14.950;2023-08-12T00:00:22;17.00;99.90
11764;DHT22;5939;56.522;14.950;2023-08-12T00:02:47;16.90;99.90
11764;DHT22;5939;56.522;14.950;2023-08-12T00:05:13;16.90;99.90
11764;DHT22;5939;56.522;14.950;2023-08-12T00:07:40;16.90;99.90
11764;DHT22;5939;56.522;14.950;2023-08-12T00:10:10;16.90;99.90
11764;DHT22;5939;56.522;14.950;2023-08-12T00:12:37;16.90;99.90
11764;DHT22;5939;56.522;14.950;2023-08-12T00:15:04;16.90;99.90
11764;DHT22;5939;56.522;14.950;2023-08-12T00:17:31;16.90;99.90
11764;DHT22;5939;56.522;14.950;2023-08-12T00:19:57;16.90;99.90
11764;DHT22;5939;56.522;14.950;2023-08-12T00:22:23;16.80;99.90
11764;DHT22;5939;56.522;14.950;2023-08-12T00:24:49;16.80;99.90
11764;DHT22;5939;56.522;14.950;2023-08-12T00:27:14;16.80;99.90
11764;DHT22;5939;56.522;14.950;2023-08-12T00:29:40;16.80;99.90
11764;DHT22;5939;56.522;14.950;2023-08-12T00:32:06;16.80;99.90
11764;DHT22;5939;56.522;14.950;2023-08-12T00:34:31;16.80;99.90
11764;DHT22;5939;56.522;14.950;2023-08-12T00:36:57;16.80;99.90
11764;DHT22;5939;56.522;14.950;2023-08-12T00:39:22;16.80;99.90
11764;DHT22;5939;56.522;14.950;2023-08-12T00:41:48;16.70;99.90
11764;DHT22;5939;56.522;14.950;2023-08-12T00:44:14;16.80;99.90
11764;DHT22;5939;56.522;14.950;2023-08-12T00:46:41;16.70;99.90
11764;DHT22;5939;56.522;14.950;2023-08-12T00:49:07;16.70;99.90
11764;DHT22;5939;56.522;14.950;2023-08-12T00:51:34;16.70;99.90
11764;DHT22;5939;56.522;14.950;2023-08-12T00:54:02;16.70;99.90
11764;DHT22;5939;56.522;14.950;2023-08-12T00:56:31;16.70;99.90
11764;DHT22;5939;56.522;14.950;2023-08-12T00:58:58;16.60;99.90
11764;DHT22;5939;56.522;14.950;2023-08-12T01:01:24;16.60;99.90
11764;DHT22;5939;56.522;14.950;2023-08-12T01:03:50;16.60;99.90
11764;DHT22;5939;56.522;14.950;2023-08-12T01:06:16;16.60;99.90
11764;DHT22;5939;56.522;14.950;2023-08-12T01:08:42;16.60;99.90
11764;DHT22;5939;56.522;14.950;2023-08-12T01:16:51;16.60;99.90
11764;DHT22;5939;56.522;14.950;2023-08-12T01:19:34;16.60;99.90
11764;DHT22;5939;56.522;14.950;2023-08-12T01:22:01;16.60;99.90
11764;DHT22;5939;56.522;14.950;2023-08-12T01:24:34;16.50;99.90
11764;DHT22;5939;56.522;14.950;2023-08-12T01:27:01;16.50;99.90
11764;DHT22;5939;56.522;14.950;2023-08-12T01:29:27;16.50;99.90
11764;DHT22;5939;56.522;14.950;2023-08-12T01:31:58;16.50;99.90
11764;DHT22;5939;56.522;14.950;2023-08-12T01:34:36;16.50;99.90
11764;DHT22;5939;56.522;14.950;2023-08-12T01:37:04;16.50;99.90
11764;DHT22;5939;56.522;14.950;2023-08-12T01:39:31;16.50;99.90
11764;DHT22;5939;56.522;14.950;2023-08-12T01:41:58;16.40;99.90
11764;DHT22;5939;56.522;14.950;2023-08-12T01:44:25;16.40;99.90
11764;DHT22;5939;56.522;14.950;2023-08-12T01:46:50;16.40;99.90
11764;DHT22;5939;56.522;14.950;2023-08-12T01:49:16;16.40;99.90
11764;DHT22;5939;56.522;14.950;2023-08-12T01:51:41;16.40;99.90
11764;DHT22;5939;56.522;14.950;2023-08-12T01:54:07;16.40;99.90
11764;DHT22;5939;56.522;14.950;2023-08-12T01:56:33;16.40;99.90
11764;DHT22;5939;56.522;14.950;2023-08-12T01:58:58;16.40;99.90
11764;DHT22;5939;56.522;14.950;2023-08-12T02:01:24;16.40;99.90
11764;DHT22;5939;56.522;14.950;2023-08-12T02:03:49;16.30;99.90
11764;DHT22;5939;56.522;14.950;2023-08-12T02:06:15;16.30;99.90
11764;DHT22;5939;56.522;14.950;2023-08-12T02:08:41;16.30;99.90
11764;DHT22;5939;56.522;14.950;2023-08-12T02:11:06;16.30;99.90
11764;DHT22;5939;56.522;14.950;2023-08-12T02:13:32;16.30;99.90
11764;DHT22;5939;56.522;14.950;2023-08-12T02:15:57;16.30;99.90
11764;DHT22;5939;56.522;14.950;2023-08-12T02:18:23;16.30;99.90
11764;DHT22;5939;56.522;14.950;2023-08-12T02:20:48;16.30;99.90
11764;DHT22;5939;56.522;14.950;2023-08-12T02:23:14;16.20;99.90
11764;DHT22;5939;56.522;14.950;2023-08-12T02:25:40;16.20;99.90
11764;DHT22;5939;56.522;14.950;2023-08-12T02:28:05;16.20;99.90
11764;DHT22;5939;56.522;14.950;2023-08-12T02:30:31;16.20;99.90
11764;DHT22;5939;56.522;14.950;2023-08-12T02:32:57;16.20;99.90
11764;DHT22;5939;56.522;14.950;2023-08-12T02:35:22;16.20;99.90
11764;DHT22;5939;56.522;14.950;2023-08-12T02:37:48;16.20;99.90
11764;DHT22;5939;56.522;14.950;2023-08-12T02:40:14;16.10;99.90
11764;DHT22;5939;56.522;14.950;2023-08-12T02:42:40;16.10;99.90
11764;DHT22;5939;56.522;14.950;2023-08-12T02:45:06;16.10;99.90
11764;DHT22;5939;56.522;14.950;2023-08-12T02:47:31;16.10;99.90
11764;DHT22;5939;56.522;14.950;2023-08-12T02:49:57;16.10;99.90
11764;DHT22;5939;56.522;14.950;2023-08-12T02:52:23;16.10;99.90
11764;DHT22;5939;56.522;14.950;2023-08-12T02:54:48;16.10;99.90
11764;DHT22;5939;56.522;14.950;2023-08-12T02:57:14;16.10;99.90
11764;DHT22;5939;56.522;14.950;2023-08-12T02:59:40;16.00;99.90
11764;DHT22;5939;56.522;14.950;2023-08-12T03:02:05;16.00;99.90
11764;DHT22;5939;56.522;14.950;2023-08-12T03:04:31;16.00;99.90
11764;DHT22;5939;56.522;14.950;2023-08-12T03:06:57;16.00;99.90
11764;DHT22;5939;56.522;14.950;2023-08-12T03:09:22;16.00;99.90
11764;DHT22;5939;56.522;14.950;2023-08-12T03:11:48;16.00;99.90
11764;DHT22;5939;56.522;14.950;2023-08-12T03:14:14;16.00;99.90
11764;DHT22;5939;56.522;14.950;2023-08-12T03:16:39;16.00;99.90
11764;DHT22;5939;56.522;14.950;2023-08-12T03:19:05;15.90;99.90
11764;DHT22;5939;56.522;14.950;2023-08-12T03:21:31;15.90;99.90
11764;DHT22;5939;56.522;14.950;2023-08-12T03:23:56;15.90;99.90
11764;DHT22;5939;56.522;14.950;2023-08-12T03:26:22;15.90;99.90
11764;DHT22;5939;56.522;14.950;2023-08-12T03:28:48;15.90;99.90
11764;DHT22;5939;56.522;14.950;2023-08-12T03:31:13;15.90;99.90
11764;DHT22;5939;56.522;14.950;2023-08-12T03:33:39;15.90;99.90
11764;DHT22;5939;56.522;14.950;2023-08-12T03:36:04;15.80;99.90
11764;DHT22;5939;56.522;14.950;2023-08-12T03:38:30;15.80;99.90
11764;DHT22;5939;56.522;14.950;2023-08-12T03:40:56;15.80;99.90
11764;DHT22;5939;56.522;14.950;2023-08-12T03:43:21;15.80;99.90
11764;DHT22;5939;56.522;14.950;2023-08-12T03:45:47;15.80;99.90
11764;DHT22;5939;56.522;14.950;2023-08-12T03:48:13;15.80;99.90
11764;DHT22;5939;56.522;14.950;2023-08-12T03:50:39;15.80;99.90
11764;DHT22;5939;56.522;14.950;2023-08-12T03:53:05;15.80;99.90
11764;DHT22;5939;56.522;14.950;2023-08-12T03:55:33;15.70;99.90
11764;DHT22;5939;56.522;14.950;2023-08-12T03:58:02;15.70;99.90
11764;DHT22;5939;56.522;14.950;2023-08-12T04:00:28;15.70;99.90
11764;DHT22;5939;56.522;14.950;2023-08-12T04:02:54;15.70;99.90
11764;DHT22;5939;56.522;14.950;2023-08-12T04:05:19;15.70;99.90
11764;DHT22;5939;56.522;14.950;2023-08-12T04:07:45;15.70;99.90
11764;DHT22;5939;56.522;14.950;2023-08-12T04:10:11;15.70;99.90
11764;DHT22;5939;56.522;14.950;2023-08-12T04:12:37;15.70;99.90
11764;DHT22;5939;56.522;14.950;2023-08-12T04:15:03;15.60;99.90
11764;DHT22;5939;56.522;14.950;2023-08-12T04:17:31;15.60;99.90
11764;DHT22;5939;56.522;14.950;2023-08-12T04:19:56;15.60;99.90
11764;DHT22;5939;56.522;14.950;2023-08-12T04:22:22;15.60;99.90
11764;DHT22;5939;56.522;14.950;2023-08-12T04:24:48;15.60;99.90
11764;DHT22;5939;56.522;14.950;2023-08-12T04:27:13;15.60;99.90
11764;DHT22;5939;56.522;14.950;2023-08-12T04:29:39;15.60;99.90
11764;DHT22;5939;56.522;14.950;2023-08-12T04:32:05;15.60;99.90
11764;DHT22;5939;56.522;14.950;2023-08-12T04:34:30;15.60;99.90
11764;DHT22;5939;56.522;14.950;2023-08-12T04:36:56;15.60;99.90
11764;DHT22;5939;56.522;14.950;2023-08-12T04:39:22;15.50;99.90
11764;DHT22;5939;56.522;14.950;2023-08-12T04:41:48;15.50;99.90
11764;DHT22;5939;56.522;14.950;2023-08-12T04:44:13;15.50;99.90
11764;DHT22;5939;56.522;14.950;2023-08-12T04:46:39;15.50;99.90
11764;DHT22;5939;56.522;14.950;2023-08-12T04:49:05;15.50;99.90
11764;DHT22;5939;56.522;14.950;2023-08-12T04:51:31;15.50;99.90
11764;DHT22;5939;56.522;14.950;2023-08-12T04:53:56;15.50;99.90
11764;DHT22;5939;56.522;14.950;2023-08-12T04:56:23;15.50;99.90
11764;DHT22;5939;56.522;14.950;2023-08-12T04:58:49;15.50;99.90
11764;DHT22;5939;56.522;14.950;2023-08-12T05:01:15;15.50;99.90
11764;DHT22;5939;56.522;14.950;2023-08-12T05:03:41;15.50;99.90
11764;DHT22;5939;56.522;14.950;2023-08-12T05:06:06;15.50;99.90
11764;DHT22;5939;56.522;14.950;2023-08-12T05:08:32;15.50;99.90
11764;DHT22;5939;56.522;14.950;2023-08-12T05:10:58;15.50;99.90
11764;DHT22;5939;56.522;14.950;2023-08-12T05:13:23;15.50;99.90
11764;DHT22;5939;56.522;14.950;2023-08-12T05:15:49;15.50;99.90
11764;DHT22;5939;56.522;14.950;2023-08-12T05:18:15;15.50;99.90
11764;DHT22;5939;56.522;14.950;2023-08-12T05:20:41;15.50;99.90
11764;DHT22;5939;56.522;14.950;2023-08-12T05:23:08;15.50;99.90
11764;DHT22;5939;56.522;14.950;2023-08-12T05:25:33;15.50;99.90
11764;DHT22;5939;56.522;14.950;2023-08-12T05:27:59;15.50;99.90
11764;DHT22;5939;56.522;14.950;2023-08-12T05:30:25;15.50;99.90
11764;DHT22;5939;56.522;14.950;2023-08-12T05:32:50;15.50;99.90
11764;DHT22;5939;56.522;14.950;2023-08-12T05:35:16;15.50;99.90
11764;DHT22;5939;56.522;14.950;2023-08-12T05:37:42;15.50;99.90
11764;DHT22;5939;56.522;14.950;2023-08-12T05:40:10;15.50;99.90
11764;DHT22;5939;56.522;14.950;2023-08-12T05:42:37;15.60;99.90
11764;DHT22;5939;56.522;14.950;2023-08-12T05:45:04;15.60;99.90
11764;DHT22;5939;56.522;14.950;2023-08-12T05:47:29;15.60;99.90
11764;DHT22;5939;56.522;14.950;2023-08-12T05:49:55;15.60;99.90
11764;DHT22;5939;56.522;14.950;2023-08-12T05:52:21;15.60;99.90
11764;DHT22;5939;56.522;14.950;2023-08-12T05:54:46;15.70;99.90
11764;DHT22;5939;56.522;14.950;2023-08-12T05:57:12;15.70;99.90
11764;DHT22;5939;56.522;14.950;2023-08-12T05:59:38;15.80;99.90
11764;DHT22;5939;56.522;14.950;2023-08-12T06:02:03;15.80;99.90
11764;DHT22;5939;56.522;14.950;2023-08-12T06:04:29;15.90;99.90
11764;DHT22;5939;56.522;14.950;2023-08-12T06:06:55;16.00;99.90
11764;DHT22;5939;56.522;14.950;2023-08-12T06:09:21;16.10;99.90
11764;DHT22;5939;56.522;14.950;2023-08-12T06:11:47;16.20;99.90
11764;DHT22;5939;56.522;14.950;2023-08-12T06:14:12;16.30;99.90
11764;DHT22;5939;56.522;14.950;2023-08-12T06:16:38;16.30;99.90
11764;DHT22;5939;56.522;14.950;2023-08-12T06:19:04;16.40;99.90
11764;DHT22;5939;56.522;14.950;2023-08-12T06:21:29;16.50;99.90
11764;DHT22;5939;56.522;14.950;2023-08-12T06:23:55;16.60;99.90
11764;DHT22;5939;56.522;14.950;2023-08-12T06:26:21;16.70;99.90
11764;DHT22;5939;56.522;14.950;2023-08-12T06:28:47;16.80;99.90
11764;DHT22;5939;56.522;14.950;2023-08-12T06:31:12;16.90;99.90
11764;DHT22;5939;56.522;14.950;2023-08-12T06:33:38;17.10;99.90
11764;DHT22;5939;56.522;14.950;2023-08-12T06:36:04;17.20;99.90
11764;DHT22;5939;56.522;14.950;2023-08-12T06:38:30;17.30;99.90
11764;DHT22;5939;56.522;14.950;2023-08-12T06:40:55;17.40;99.90
11764;DHT22;5939;56.522;14.950;2023-08-12T06:43:21;17.50;99.90
11764;DHT22;5939;56.522;14.950;2023-08-12T06:45:47;17.60;99.90
11764;DHT22;5939;56.522;14.950;2023-08-12T06:48:12;17.60;99.90
11764;DHT22;5939;56.522;14.950;2023-08-12T06:50:38;17.80;99.90
11764;DHT22;5939;56.522;14.950;2023-08-12T06:53:04;17.90;99.90
11764;DHT22;5939;56.522;14.950;2023-08-12T06:55:29;18.00;99.90
11764;DHT22;5939;56.522;14.950;2023-08-12T06:57:55;18.10;99.90
11764;DHT22;5939;56.522;14.950;2023-08-12T07:00:21;18.10;99.90
11764;DHT22;5939;56.522;14.950;2023-08-12T07:02:46;18.20;99.90
11764;DHT22;5939;56.522;14.950;2023-08-12T07:05:12;18.30;99.90
11764;DHT22;5939;56.522;14.950;2023-08-12T07:07:38;18.40;99.90
11764;DHT22;5939;56.522;14.950;2023-08-12T07:10:04;18.50;99.90
11764;DHT22;5939;56.522;14.950;2023-08-12T07:12:30;18.60;99.90
11764;DHT22;5939;56.522;14.950;2023-08-12T07:14:56;18.70;99.90
11764;DHT22;5939;56.522;14.950;2023-08-12T07:17:21;18.70;99.90
11764;DHT22;5939;56.522;14.950;2023-08-12T07:19:47;18.80;99.90
11764;DHT22;5939;56.522;14.950;2023-08-12T07:22:13;18.80;99.90
11764;DHT22;5939;56.522;14.950;2023-08-12T07:24:38;18.90;99.90
11764;DHT22;5939;56.522;14.950;2023-08-12T07:27:04;18.90;99.90
11764;DHT22;5939;56.522;14.950;2023-08-12T07:29:30;19.00;99.90
11764;DHT22;5939;56.522;14.950;2023-08-12T07:31:56;19.00;99.90
11764;DHT22;5939;56.522;14.950;2023-08-12T07:34:21;19.10;99.90
11764;DHT22;5939;56.522;14.950;2023-08-12T07:36:47;19.10;99.90
11764;DHT22;5939;56.522;14.950;2023-08-12T07:39:13;19.10;99.90
11764;DHT22;5939;56.522;14.950;2023-08-12T07:41:38;19.20;99.90
11764;DHT22;5939;56.522;14.950;2023-08-12T07:44:04;19.30;99.90
11764;DHT22;5939;56.522;14.950;2023-08-12T07:46:30;19.30;99.90
11764;DHT22;5939;56.522;14.950;2023-08-12T07:48:56;19.40;99.90
11764;DHT22;5939;56.522;14.950;2023-08-12T07:51:22;19.40;99.90
11764;DHT22;5939;56.522;14.950;2023-08-12T07:53:48;19.40;99.90
11764;DHT22;5939;56.522;14.950;2023-08-12T07:56:13;19.50;99.90
11764;DHT22;5939;56.522;14.950;2023-08-12T07:58:39;19.40;99.90
11764;DHT22;5939;56.522;14.950;2023-08-12T08:01:05;19.60;99.90
11764;DHT22;5939;56.522;14.950;2023-08-12T08:03:31;19.50;99.90
11764;DHT22;5939;56.522;14.950;2023-08-12T08:05:57;19.60;99.90
11764;DHT22;5939;56.522;14.950;2023-08-12T08:08:22;19.60;99.90
11764;DHT22;5939;56.522;14.950;2023-08-12T08:10:48;19.60;99.90
11764;DHT22;5939;56.522;14.950;2023-08-12T08:13:14;19.60;99.90
11764;DHT22;5939;56.522;14.950;2023-08-12T08:15:39;19.70;99.90
11764;DHT22;5939;56.522;14.950;2023-08-12T08:18:05;19.70;99.90
11764;DHT22;5939;56.522;14.950;2023-08-12T08:20:31;19.70;99.90
11764;DHT22;5939;56.522;14.950;2023-08-12T08:22:56;19.70;99.90
11764;DHT22;5939;56.522;14.950;2023-08-12T08:25:22;19.80;99.90
11764;DHT22;5939;56.522;14.950;2023-08-12T08:27:48;19.90;99.90
11764;DHT22;5939;56.522;14.950;2023-08-12T08:30:14;19.90;99.90
11764;DHT22;5939;56.522;14.950;2023-08-12T08:32:40;19.90;99.90
11764;DHT22;5939;56.522;14.950;2023-08-12T08:35:06;20.00;99.90
11764;DHT22;5939;56.522;14.950;2023-08-12T08:37:31;20.00;99.90
11764;DHT22;5939;56.522;14.950;2023-08-12T08:39:57;20.10;99.90
11764;DHT22;5939;56.522;14.950;2023-08-12T08:42:24;20.10;99.90
11764;DHT22;5939;56.522;14.950;2023-08-12T08:44:53;20.10;99.90
11764;DHT22;5939;56.522;14.950;2023-08-12T08:47:26;20.20;99.90
11764;DHT22;5939;56.522;14.950;2023-08-12T08:49:54;20.20;99.90
11764;DHT22;5939;56.522;14.950;2023-08-12T08:52:22;20.20;99.90
11764;DHT22;5939;56.522;14.950;2023-08-12T08:54:49;20.20;99.90
11764;DHT22;5939;56.522;14.950;2023-08-12T08:57:14;20.30;99.90
11764;DHT22;5939;56.522;14.950;2023-08-12T08:59:40;20.30;99.90
11764;DHT22;5939;56.522;14.950;2023-08-12T09:02:16;20.30;99.90
11764;DHT22;5939;56.522;14.950;2023-08-12T09:04:44;20.30;99.90
11764;DHT22;5939;56.522;14.950;2023-08-12T09:07:12;20.30;99.90
11764;DHT22;5939;56.522;14.950;2023-08-12T09:09:41;20.30;99.90
11764;DHT22;5939;56.522;14.950;2023-08-12T09:12:13;20.30;99.90
11764;DHT22;5939;56.522;14.950;2023-08-12T09:14:39;20.40;99.90
11764;DHT22;5939;56.522;14.950;2023-08-12T09:17:05;20.30;99.90
11764;DHT22;5939;56.522;14.950;2023-08-12T09:19:31;20.30;99.90
11764;DHT22;5939;56.522;14.950;2023-08-12T09:21:57;20.30;99.90
11764;DHT22;5939;56.522;14.950;2023-08-12T09:24:26;20.30;99.90
11764;DHT22;5939;56.522;14.950;2023-08-12T09:26:53;20.40;99.90
11764;DHT22;5939;56.522;14.950;2023-08-12T09:29:23;20.40;99.90
11764;DHT22;5939;56.522;14.950;2023-08-12T09:31:50;20.40;99.90
11764;DHT22;5939;56.522;14.950;2023-08-12T09:34:17;20.30;99.90
11764;DHT22;5939;56.522;14.950;2023-08-12T09:36:43;20.40;99.90
11764;DHT22;5939;56.522;14.950;2023-08-12T09:39:09;20.40;99.90
11764;DHT22;5939;56.522;14.950;2023-08-12T09:41:35;20.40;99.90
11764;DHT22;5939;56.522;14.950;2023-08-12T09:44:03;20.40;99.90
11764;DHT22;5939;56.522;14.950;2023-08-12T09:46:29;20.40;99.90
11764;DHT22;5939;56.522;14.950;2023-08-12T09:48:58;20.40;99.90
11764;DHT22;5939;56.522;14.950;2023-08-12T09:51:24;20.40;99.90
11764;DHT22;5939;56.522;14.950;2023-08-12T09:53:51;20.50;99.90
11764;DHT22;5939;56.522;14.950;2023-08-12T09:56:19;20.50;99.90
11764;DHT22;5939;56.522;14.950;2023-08-12T09:58:49;20.50;99.90
11764;DHT22;5939;56.522;14.950;2023-08-12T10:01:19;20.50;99.90
11764;DHT22;5939;56.522;14.950;2023-08-12T10:03:51;20.50;99.90
11764;DHT22;5939;56.522;14.950;2023-08-12T10:06:18;20.50;99.90
11764;DHT22;5939;56.522;14.950;2023-08-12T10:08:46;20.60;99.90
11764;DHT22;5939;56.522;14.950;2023-08-12T10:11:13;20.60;99.90
11764;DHT22;5939;56.522;14.950;2023-08-12T10:13:40;20.60;99.90
11764;DHT22;5939;56.522;14.950;2023-08-12T10:16:08;20.60;99.90
11764;DHT22;5939;56.522;14.950;2023-08-12T10:18:36;20.60;99.90
11764;DHT22;5939;56.522;14.950;2023-08-12T10:21:02;20.60;99.90
11764;DHT22;5939;56.522;14.950;2023-08-12T10:23:27;20.70;99.90
11764;DHT22;5939;56.522;14.950;2023-08-12T10:25:55;20.70;99.90
11764;DHT22;5939;56.522;14.950;2023-08-12T10:28:21;20.80;99.90
11764;DHT22;5939;56.522;14.950;2023-08-12T10:30:47;20.80;99.90
11764;DHT22;5939;56.522;14.950;2023-08-12T10:33:16;20.80;99.90
11764;DHT22;5939;56.522;14.950;2023-08-12T10:35:47;20.90;99.90
11764;DHT22;5939;56.522;14.950;2023-08-12T10:38:22;20.90;99.90
11764;DHT22;5939;56.522;14.950;2023-08-12T10:40:50;20.90;99.90
11764;DHT22;5939;56.522;14.950;2023-08-12T10:43:16;21.00;99.90
11764;DHT22;5939;56.522;14.950;2023-08-12T10:46:02;21.00;99.90
11764;DHT22;5939;56.522;14.950;2023-08-12T10:48:28;21.00;99.90
11764;DHT22;5939;56.522;14.950;2023-08-12T10:50:57;21.10;99.90
11764;DHT22;5939;56.522;14.950;2023-08-12T10:53:28;21.10;99.90
11764;DHT22;5939;56.522;14.950;2023-08-12T10:56:01;21.20;99.90
11764;DHT22;5939;56.522;14.950;2023-08-12T10:59:01;21.20;99.90
11764;DHT22;5939;56.522;14.950;2023-08-12T11:01:19;21.20;99.90
11764;DHT22;5939;56.522;14.950;2023-08-12T11:03:47;21.30;99.90
11764;DHT22;5939;56.522;14.950;2023-08-12T11:06:13;21.30;99.90
11764;DHT22;5939;56.522;14.950;2023-08-12T11:08:52;21.30;99.90
11764;DHT22;5939;56.522;14.950;2023-08-12T11:11:23;21.40;99.90
11764;DHT22;5939;56.522;14.950;2023-08-12T11:13:56;21.40;99.90
11764;DHT22;5939;56.522;14.950;2023-08-12T11:16:35;21.50;99.90
11764;DHT22;5939;56.522;14.950;2023-08-12T11:19:02;21.50;99.90
11764;DHT22;5939;56.522;14.950;2023-08-12T11:21:29;21.60;99.90
11764;DHT22;5939;56.522;14.950;2023-08-12T11:23:55;21.70;99.90
11764;DHT22;5939;56.522;14.950;2023-08-12T11:26:25;21.80;99.90
11764;DHT22;5939;56.522;14.950;2023-08-12T11:28:50;21.80;99.90
11764;DHT22;5939;56.522;14.950;2023-08-12T11:31:17;21.90;99.90
11764;DHT22;5939;56.522;14.950;2023-08-12T11:33:43;22.00;99.90
11764;DHT22;5939;56.522;14.950;2023-08-12T11:36:09;22.00;99.90
11764;DHT22;5939;56.522;14.950;2023-08-12T11:38:34;22.10;99.90
11764;DHT22;5939;56.522;14.950;2023-08-12T11:41:02;22.20;99.90
11764;DHT22;5939;56.522;14.950;2023-08-12T11:43:32;22.20;99.90
11764;DHT22;5939;56.522;14.950;2023-08-12T11:45:59;22.30;99.90
11764;DHT22;5939;56.522;14.950;2023-08-12T11:48:27;22.40;99.90
11764;DHT22;5939;56.522;14.950;2023-08-12T11:50:53;22.40;99.90
11764;DHT22;5939;56.522;14.950;2023-08-12T11:53:19;22.50;99.90
11764;DHT22;5939;56.522;14.950;2023-08-12T11:55:45;22.60;99.90
11764;DHT22;5939;56.522;14.950;2023-08-12T11:58:13;22.60;99.90
11764;DHT22;5939;56.522;14.950;2023-08-12T12:00:39;22.70;99.90
11764;DHT22;5939;56.522;14.950;2023-08-12T12:03:04;22.80;99.90
11764;DHT22;5939;56.522;14.950;2023-08-12T12:05:32;22.90;99.90
11764;DHT22;5939;56.522;14.950;2023-08-12T12:07:59;23.00;99.90
11764;DHT22;5939;56.522;14.950;2023-08-12T12:10:30;23.00;99.90
11764;DHT22;5939;56.522;14.950;2023-08-12T12:12:56;23.10;99.90
11764;DHT22;5939;56.522;14.950;2023-08-12T12:15:22;23.10;99.90
11764;DHT22;5939;56.522;14.950;2023-08-12T12:17:52;23.30;99.90
11764;DHT22;5939;56.522;14.950;2023-08-12T12:20:18;23.30;99.90
11764;DHT22;5939;56.522;14.950;2023-08-12T12:22:45;23.30;99.90
11764;DHT22;5939;56.522;14.950;2023-08-12T12:25:15;23.40;99.90
11764;DHT22;5939;56.522;14.950;2023-08-12T12:27:42;23.40;99.90
11764;DHT22;5939;56.522;14.950;2023-08-12T12:30:10;23.40;99.90
11764;DHT22;5939;56.522;14.950;2023-08-12T12:32:36;23.40;99.90
11764;DHT22;5939;56.522;14.950;2023-08-12T12:35:02;23.40;99.90
11764;DHT22;5939;56.522;14.950;2023-08-12T12:37:29;23.40;99.90
11764;DHT22;5939;56.522;14.950;2023-08-12T12:39:54;23.50;99.90
11764;DHT22;5939;56.522;14.950;2023-08-12T12:42:20;23.50;99.90
11764;DHT22;5939;56.522;14.950;2023-08-12T12:44:46;23.50;99.90
11764;DHT22;5939;56.522;14.950;2023-08-12T12:47:11;23.60;99.90
11764;DHT22;5939;56.522;14.950;2023-08-12T12:49:41;23.60;99.90
11764;DHT22;5939;56.522;14.950;2023-08-12T12:52:09;23.60;99.90
11764;DHT22;5939;56.522;14.950;2023-08-12T12:54:35;23.60;99.90
11764;DHT22;5939;56.522;14.950;2023-08-12T12:57:01;23.70;99.90
11764;DHT22;5939;56.522;14.950;2023-08-12T12:59:27;23.70;99.90
11764;DHT22;5939;56.522;14.950;2023-08-12T13:01:52;23.70;99.90
11764;DHT22;5939;56.522;14.950;2023-08-12T13:04:19;23.70;99.90
11764;DHT22;5939;56.522;14.950;2023-08-12T13:06:44;23.70;99.90
11764;DHT22;5939;56.522;14.950;2023-08-12T13:09:10;23.70;99.90
11764;DHT22;5939;56.522;14.950;2023-08-12T13:11:36;23.80;99.90
11764;DHT22;5939;56.522;14.950;2023-08-12T13:14:02;23.80;99.90
11764;DHT22;5939;56.522;14.950;2023-08-12T13:16:28;23.80;99.90
11764;DHT22;5939;56.522;14.950;2023-08-12T13:18:54;23.80;99.90
11764;DHT22;5939;56.522;14.950;2023-08-12T13:21:20;23.70;99.90
11764;DHT22;5939;56.522;14.950;2023-08-12T13:23:45;23.70;99.90
11764;DHT22;5939;56.522;14.950;2023-08-12T13:26:11;23.70;99.90
11764;DHT22;5939;56.522;14.950;2023-08-12T13:28:37;23.70;99.90
11764;DHT22;5939;56.522;14.950;2023-08-12T13:31:02;23.60;99.90
11764;DHT22;5939;56.522;14.950;2023-08-12T13:33:28;23.60;99.90
11764;DHT22;5939;56.522;14.950;2023-08-12T13:35:54;23.60;99.90
11764;DHT22;5939;56.522;14.950;2023-08-12T13:38:20;23.60;99.90
11764;DHT22;5939;56.522;14.950;2023-08-12T13:40:45;23.50;99.90
11764;DHT22;5939;56.522;14.950;2023-08-12T13:43:11;23.50;99.90
11764;DHT22;5939;56.522;14.950;2023-08-12T13:45:37;23.50;99.90
11764;DHT22;5939;56.522;14.950;2023-08-12T13:48:03;23.40;99.90
11764;DHT22;5939;56.522;14.950;2023-08-12T13:50:28;23.40;99.90
11764;DHT22;5939;56.522;14.950;2023-08-12T13:52:54;23.40;99.90
11764;DHT22;5939;56.522;14.950;2023-08-12T13:55:20;23.40;99.90
11764;DHT22;5939;56.522;14.950;2023-08-12T13:57:45;23.30;99.90
11764;DHT22;5939;56.522;14.950;2023-08-12T14:00:11;23.30;99.90
11764;DHT22;5939;56.522;14.950;2023-08-12T14:02:40;23.30;99.90
11764;DHT22;5939;56.522;14.950;2023-08-12T14:05:06;23.30;99.90
11764;DHT22;5939;56.522;14.950;2023-08-12T14:07:32;23.30;99.90
11764;DHT22;5939;56.522;14.950;2023-08-12T14:09:58;23.20;99.90
11764;DHT22;5939;56.522;14.950;2023-08-12T14:12:24;23.20;99.90
11764;DHT22;5939;56.522;14.950;2023-08-12T14:14:50;23.20;99.90
11764;DHT22;5939;56.522;14.950;2023-08-12T14:17:15;23.10;99.90
11764;DHT22;5939;56.522;14.950;2023-08-12T14:19:44;23.10;99.90
11764;DHT22;5939;56.522;14.950;2023-08-12T14:22:13;23.10;99.90
11764;DHT22;5939;56.522;14.950;2023-08-12T14:24:38;23.10;99.90
11764;DHT22;5939;56.522;14.950;2023-08-12T14:27:04;23.10;99.90
11764;DHT22;5939;56.522;14.950;2023-08-12T14:29:30;23.10;99.90
11764;DHT22;5939;56.522;14.950;2023-08-12T14:31:56;23.10;99.90
11764;DHT22;5939;56.522;14.950;2023-08-12T14:34:23;23.10;99.90
11764;DHT22;5939;56.522;14.950;2023-08-12T14:36:48;23.00;99.90
11764;DHT22;5939;56.522;14.950;2023-08-12T14:39:14;23.00;99.90
11764;DHT22;5939;56.522;14.950;2023-08-12T14:41:39;23.00;99.90
11764;DHT22;5939;56.522;14.950;2023-08-12T14:44:05;23.00;99.90
11764;DHT22;5939;56.522;14.950;2023-08-12T14:46:31;23.00;99.90
11764;DHT22;5939;56.522;14.950;2023-08-12T14:48:57;23.00;99.90
11764;DHT22;5939;56.522;14.950;2023-08-12T14:51:23;23.00;99.90
11764;DHT22;5939;56.522;14.950;2023-08-12T14:53:48;23.00;99.90
11764;DHT22;5939;56.522;14.950;2023-08-12T14:56:15;23.00;99.90
11764;DHT22;5939;56.522;14.950;2023-08-12T14:58:40;22.90;99.90
11764;DHT22;5939;56.522;14.950;2023-08-12T15:01:06;22.90;99.90
11764;DHT22;5939;56.522;14.950;2023-08-12T15:03:32;22.90;99.90
11764;DHT22;5939;56.522;14.950;2023-08-12T15:06:02;22.90;99.90
11764;DHT22;5939;56.522;14.950;2023-08-12T15:08:29;22.90;99.90
11764;DHT22;5939;56.522;14.950;2023-08-12T15:10:55;22.90;99.90
11764;DHT22;5939;56.522;14.950;2023-08-12T15:13:21;22.90;99.90
11764;DHT22;5939;56.522;14.950;2023-08-12T15:15:48;22.80;99.90
11764;DHT22;5939;56.522;14.950;2023-08-12T15:18:14;22.80;99.90
11764;DHT22;5939;56.522;14.950;2023-08-12T15:20:40;22.80;99.90
11764;DHT22;5939;56.522;14.950;2023-08-12T15:23:05;22.80;99.90
11764;DHT22;5939;56.522;14.950;2023-08-12T15:25:31;22.80;99.90
11764;DHT22;5939;56.522;14.950;2023-08-12T15:27:57;22.70;99.90
11764;DHT22;5939;56.522;14.950;2023-08-12T15:30:23;22.70;99.90